Time;durP1;ratioP1;P1;durP2;ratioP2;P2;SDS_P1;SDS_P2;PMS_P1;PMS_P2;Temp;Humidity;BMP_temperature;BMP_pressure;BME280_temperature;BME280_humidity;BME280_pressure;Samples;Min_cycle;Max_cycle;Signal;HPM_P1;HPM_P2
2022/11/01 00:01:58;;;;;;;21.98;7.45;;;;;;;15.42;78.17;100646.59;5036498;28;20553;-62
2022/11/01 00:04:25;;;;;;;22.42;7.68;;;;;;;15.51;78.33;100650.81;5053673;28;20055;-63
2022/11/01 00:06:52;;;;;;;21.65;7.75;;;;;;;15.47;79.09;100640.72;5053922;28;20103;-62
2022/11/01 00:09:18;;;;;;;25.17;7.15;;;;;;;15.45;79.73;100634.72;5053938;28;20045;-62
2022/11/01 00:11:45;;;;;;;27.40;8.80;;;;;;;15.44;81.80;100630.38;5053999;28;20125;-62
2022/11/01 00:14:14;;;;;;;24.50;8.38;;;;;;;15.33;83.43;100631.69;5053532;28;20120;-63
2022/11/01 00:16:42;;;;;;;28.33;8.82;;;;;;;15.34;83.64;100626.16;5052389;28;20068;-63
2022/11/01 00:19:09;;;;;;;19.75;8.18;;;;;;;15.34;84.54;100628.84;5054013;28;20057;-62
2022/11/01 00:21:36;;;;;;;22.70;8.00;;;;;;;15.16;84.18;100623.09;5053592;28;20096;-63
2022/11/01 00:24:03;;;;;;;22.50;8.00;;;;;;;15.06;85.35;100618.03;5049768;28;20436;-63
2022/11/01 00:26:30;;;;;;;20.38;8.30;;;;;;;15.13;84.49;100612.75;5049535;28;20040;-63
2022/11/01 00:28:56;;;;;;;23.60;8.77;;;;;;;15.07;85.74;100621.53;5053373;28;20045;-63
2022/11/01 00:31:23;;;;;;;23.65;9.05;;;;;;;15.03;86.02;100609.56;5052396;28;20041;-62
2022/11/01 00:33:50;;;;;;;24.65;8.60;;;;;;;14.98;86.85;100616.28;5053322;28;20036;-63
2022/11/01 00:36:17;;;;;;;25.98;8.88;;;;;;;14.96;86.25;100601.47;5053523;28;20045;-63
2022/11/01 00:38:43;;;;;;;27.50;8.38;;;;;;;14.89;87.24;100592.53;5052137;28;20505;-63
2022/11/01 00:41:10;;;;;;;35.28;9.27;;;;;;;14.95;87.84;100581.09;5014556;28;20439;-62
2022/11/01 00:43:37;;;;;;;22.48;8.10;;;;;;;14.93;86.62;100581.28;5052247;28;20086;-63
2022/11/01 00:46:04;;;;;;;32.08;8.63;;;;;;;14.91;86.30;100587.84;5051975;28;20049;-62
2022/11/01 00:48:31;;;;;;;27.45;8.60;;;;;;;14.93;86.51;100588.47;5053378;28;20045;-63
2022/11/01 00:50:58;;;;;;;29.02;8.98;;;;;;;14.99;87.46;100587.75;5051493;28;20048;-62
2022/11/01 00:53:25;;;;;;;24.58;8.32;;;;;;;14.93;86.74;100580.47;5051938;28;20041;-62
2022/11/01 00:55:52;;;;;;;26.13;9.05;;;;;;;14.98;87.62;100584.22;5053258;28;20045;-63
2022/11/01 00:58:19;;;;;;;36.55;9.25;;;;;;;14.94;86.57;100577.59;5052872;28;20033;-62
2022/11/01 01:00:46;;;;;;;25.90;9.05;;;;;;;14.94;87.16;100579.47;5053121;28;20041;-62
2022/11/01 01:03:13;;;;;;;28.80;8.57;;;;;;;14.96;88.02;100575.56;5053299;28;20045;-62
2022/11/01 01:05:40;;;;;;;19.42;8.18;;;;;;;14.91;86.10;100577.97;5052683;28;20487;-62
2022/11/01 01:08:06;;;;;;;26.05;8.68;;;;;;;14.97;86.49;100571.91;5052762;28;20045;-62
2022/11/01 01:10:33;;;;;;;24.33;8.10;;;;;;;14.96;84.50;100570.22;5053146;28;20053;-62
2022/11/01 01:13:00;;;;;;;30.25;8.82;;;;;;;15.02;84.93;100576.66;5035063;28;20124;-62
2022/11/01 01:15:27;;;;;;;23.90;8.32;;;;;;;15.08;85.20;100581.28;5053037;28;20045;-62
2022/11/01 01:17:53;;;;;;;24.33;7.50;;;;;;;15.19;85.24;100584.47;5053153;28;20051;-62
2022/11/01 01:20:20;;;;;;;20.60;8.18;;;;;;;15.16;86.14;100581.16;5052926;28;20045;-62
2022/11/01 01:22:47;;;;;;;23.90;7.95;;;;;;;15.20;85.36;100586.94;5052406;28;20053;-62
2022/11/01 01:25:15;;;;;;;22.50;7.93;;;;;;;15.24;85.21;100580.19;5052610;28;20045;-62
2022/11/01 01:27:41;;;;;;;23.77;7.65;;;;;;;15.25;83.49;100581.06;5052978;28;20056;-62
2022/11/01 01:30:08;;;;;;;24.88;8.13;;;;;;;15.26;83.33;100585.38;5052609;28;20091;-62
2022/11/01 01:32:35;;;;;;;22.92;7.78;;;;;;;15.32;83.06;100590.78;5052973;28;20052;-62
2022/11/01 01:35:02;;;;;;;25.55;7.97;;;;;;;15.35;85.64;100581.56;5052888;28;20087;-62
2022/11/01 01:37:29;;;;;;;32.85;8.50;;;;;;;15.35;83.61;100594.91;5052488;28;20048;-62
2022/11/01 01:39:56;;;;;;;22.17;8.40;;;;;;;15.38;83.23;100588.38;5012846;28;20045;-63
2022/11/01 01:42:28;;;;;;;26.48;8.00;;;;;;;15.48;81.97;100587.06;5052907;28;20124;-63
2022/11/01 01:45:15;;;;;;;28.40;7.63;;;;;;;15.43;83.00;100588.66;5052745;28;20120;-62
2022/11/01 01:47:46;;;;;;;26.50;8.32;;;;;;;15.39;83.19;100590.88;5052741;28;20052;-62
2022/11/01 01:50:53;;;;;;;22.42;7.68;;;;;;;15.41;82.81;100588.00;5053104;28;20502;-62
2022/11/01 01:53:27;;;;;;;23.40;7.43;;;;;;;15.45;82.83;100579.41;5052296;28;20047;-62
2022/11/01 01:56:00;;;;;;;20.63;7.68;;;;;;;15.50;82.37;100595.72;5052903;28;20042;-62
2022/11/01 01:58:30;;;;;;;25.17;8.30;;;;;;;15.46;82.42;100588.25;5052479;28;20458;-62
2022/11/01 02:00:57;;;;;;;27.20;7.53;;;;;;;15.40;82.59;100576.47;5052543;28;20037;-62
2022/11/01 02:03:29;;;;;;;24.90;7.85;;;;;;;15.45;82.99;100581.25;5051330;28;20037;-62
2022/11/01 02:06:01;;;;;;;23.48;7.20;;;;;;;15.46;82.30;100578.41;5051559;28;20037;-62
2022/11/01 02:08:29;;;;;;;20.95;8.07;;;;;;;15.50;82.19;100578.84;5052788;28;20115;-62
2022/11/01 02:10:59;;;;;;;21.83;7.97;;;;;;;15.49;82.32;100577.19;5056353;28;20445;-62
2022/11/01 02:13:27;;;;;;;23.00;8.20;;;;;;;15.44;82.47;100571.56;5055153;28;20068;-62
2022/11/01 02:16:22;;;;;;;25.88;7.30;;;;;;;15.50;83.09;100562.81;5056325;28;20091;-62
2022/11/01 02:19:29;;;;;;;28.83;8.10;;;;;;;15.46;81.93;100574.88;5056420;28;20076;-62
2022/11/01 02:22:19;;;;;;;23.50;8.18;;;;;;;15.48;83.03;100580.88;5055514;28;20063;-62
2022/11/01 02:25:27;;;;;;;29.75;8.13;;;;;;;15.43;83.08;100573.44;5054979;28;20052;-63
2022/11/01 02:31:32;;;;;;;22.27;7.63;;;;;;;15.44;84.01;100568.91;5110080;27;20379;-61
2022/11/01 02:34:09;;;;;;;24.63;7.88;;;;;;;15.37;83.15;100566.16;5110529;28;20075;-61
2022/11/01 02:36:47;;;;;;;21.17;7.88;;;;;;;15.34;83.52;100567.38;5110959;28;20044;-62
2022/11/01 02:39:28;;;;;;;23.25;8.05;;;;;;;15.40;84.23;100564.97;5078196;28;20419;-62
2022/11/01 02:42:05;;;;;;;25.80;7.40;;;;;;;15.40;84.58;100576.47;5111030;28;20044;-62
2022/11/01 02:44:37;;;;;;;15.45;7.18;;;;;;;15.34;84.28;100567.38;5110521;28;20493;-62
2022/11/01 02:47:05;;;;;;;24.58;7.80;;;;;;;15.36;85.21;100564.50;5110620;28;20044;-61
2022/11/01 02:49:36;;;;;;;29.92;7.68;;;;;;;15.28;84.86;100559.28;5110587;28;20048;-61
2022/11/01 02:52:05;;;;;;;28.10;7.75;;;;;;;15.31;85.64;100559.72;5110555;28;20116;-62
2022/11/01 02:54:38;;;;;;;18.85;7.32;;;;;;;15.28;85.15;100560.13;5110632;28;20500;-62
2022/11/01 03:00:03;;;;;;;21.52;7.15;;;;;;;15.23;85.75;100556.38;5070547;28;20394;-61
2022/11/01 03:02:42;;;;;;;22.02;7.55;;;;;;;15.21;86.39;100561.03;5069997;28;20053;-62
2022/11/01 03:05:18;;;;;;;25.35;7.75;;;;;;;15.26;86.33;100559.50;5069703;28;20059;-62
2022/11/01 03:07:51;;;;;;;23.55;8.13;;;;;;;15.20;86.27;100556.75;5070258;28;20053;-62
2022/11/01 03:10:20;;;;;;;23.00;7.28;;;;;;;15.15;86.55;100560.81;5070402;28;20118;-61
2022/11/01 03:12:57;;;;;;;29.63;7.40;;;;;;;15.21;87.46;100567.25;5070171;28;20068;-61
2022/11/01 03:15:31;;;;;;;24.80;6.47;;;;;;;15.22;87.51;100568.06;5070454;28;20128;-61
2022/11/01 03:18:07;;;;;;;23.33;7.22;;;;;;;15.24;87.85;100571.38;5068853;28;20454;-62
2022/11/01 03:20:46;;;;;;;21.42;6.75;;;;;;;15.21;88.62;100575.25;5070331;28;20057;-62
2022/11/01 03:23:21;;;;;;;29.67;7.25;;;;;;;15.29;87.94;100582.31;5070231;28;20135;-62
2022/11/01 03:25:53;;;;;;;19.58;7.13;;;;;;;15.25;88.65;100575.72;5069564;28;20072;-62
2022/11/01 03:28:25;;;;;;;21.85;7.43;;;;;;;15.26;89.32;100582.69;5068646;28;20494;-62
2022/11/01 03:31:04;;;;;;;18.52;7.45;;;;;;;15.25;89.00;100575.72;5069936;28;20045;-62
2022/11/01 03:33:33;;;;;;;18.45;6.95;;;;;;;15.29;88.12;100587.66;5070107;28;20052;-62
2022/11/01 03:36:06;;;;;;;17.60;6.63;;;;;;;15.34;87.96;100588.75;5069670;28;20044;-62
2022/11/01 03:38:41;;;;;;;23.13;5.75;;;;;;;15.55;86.99;100590.63;5069714;28;20049;-62
2022/11/01 03:41:14;;;;;;;16.80;5.65;;;;;;;15.67;86.60;100588.25;5031952;28;20379;-61
2022/11/01 03:43:41;;;;;;;21.33;5.35;;;;;;;15.73;85.86;100592.88;5069698;28;20106;-62
2022/11/01 03:46:08;;;;;;;18.30;5.82;;;;;;;15.87;85.46;100601.03;5068553;28;20048;-61
2022/11/01 03:48:39;;;;;;;19.02;5.65;;;;;;;15.90;85.40;100600.66;5068021;28;20037;-62
2022/11/01 03:51:06;;;;;;;17.88;5.15;;;;;;;16.06;84.23;100603.06;5069593;28;20049;-62
2022/11/01 03:53:33;;;;;;;17.67;5.57;;;;;;;16.02;84.10;100606.31;5069295;28;20126;-61
2022/11/01 03:55:59;;;;;;;15.63;5.00;;;;;;;16.11;83.96;100611.31;5069066;28;20394;-62
2022/11/01 03:58:40;;;;;;;18.77;5.53;;;;;;;16.08;84.38;100621.56;5068813;28;20057;-61
2022/11/01 04:01:08;;;;;;;19.08;5.38;;;;;;;16.18;83.67;100622.06;5069519;28;20043;-62
2022/11/01 04:03:35;;;;;;;19.52;5.25;;;;;;;16.23;83.34;100618.81;5069239;28;20044;-62
2022/11/01 04:06:02;;;;;;;16.75;5.57;;;;;;;16.19;83.70;100629.09;5068541;28;20049;-62
2022/11/01 04:08:29;;;;;;;19.02;5.68;;;;;;;16.25;83.11;100625.63;5069133;28;20080;-62
2022/11/01 04:10:56;;;;;;;16.75;5.32;;;;;;;16.23;83.38;100629.53;5057063;28;20068;-61
2022/11/01 04:13:23;;;;;;;19.73;5.72;;;;;;;16.29;82.69;100634.09;5056065;28;20479;-62
2022/11/01 04:21:25;;;;;;;15.50;5.28;;;;;;;16.17;83.05;100646.34;5054161;28;20056;-61
2022/11/01 04:23:52;;;;;;;14.40;5.15;;;;;;;16.12;83.37;100652.28;5055745;28;20053;-62
2022/11/01 04:26:21;;;;;;;15.60;5.20;;;;;;;16.33;82.19;100662.13;5053174;28;20128;-61
2022/11/01 04:28:55;;;;;;;22.23;5.18;;;;;;;16.27;82.38;100658.38;5034103;28;20431;-61
2022/11/01 04:31:32;;;;;;;19.00;5.28;;;;;;;16.23;82.38;100664.31;5035514;28;20065;-61
2022/11/01 04:34:00;;;;;;;16.25;4.95;;;;;;;16.21;83.69;100674.38;5035356;28;20056;-62
2022/11/01 04:36:27;;;;;;;17.13;5.47;;;;;;;16.12;83.01;100681.72;5035497;28;20557;-61
2022/11/01 04:38:55;;;;;;;16.42;5.13;;;;;;;16.12;83.36;100674.53;5032179;28;20567;-61
2022/11/01 04:41:25;;;;;;;15.27;5.20;;;;;;;16.16;83.84;100683.00;5003139;28;20045;-62
2022/11/01 04:43:54;;;;;;;15.50;4.85;;;;;;;16.12;84.79;100687.06;5035088;28;20562;-61
2022/11/01 04:46:20;;;;;;;15.82;4.93;;;;;;;16.08;85.35;100686.63;5035277;28;20087;-62
2022/11/01 04:48:48;;;;;;;18.58;4.95;;;;;;;16.04;85.13;100688.00;5035214;28;20045;-62
2022/11/01 04:51:14;;;;;;;15.48;5.43;;;;;;;15.99;84.87;100698.47;5037780;28;20094;-61
2022/11/01 04:53:41;;;;;;;19.15;5.72;;;;;;;16.01;86.06;100708.97;5054942;28;20094;-62
2022/11/01 04:56:11;;;;;;;20.98;5.65;;;;;;;15.96;85.63;100703.38;5054652;28;20453;-61
2022/11/01 04:58:38;;;;;;;19.35;5.18;;;;;;;15.94;86.01;100708.91;5054605;28;20049;-62
2022/11/01 05:01:06;;;;;;;17.20;5.72;;;;;;;16.00;85.46;100702.78;5054840;28;20049;-61
2022/11/01 05:03:34;;;;;;;13.88;5.07;;;;;;;15.98;85.14;100712.03;5054657;28;20041;-61
2022/11/01 05:06:01;;;;;;;15.20;4.82;;;;;;;16.02;84.33;100713.31;5052991;28;20120;-62
2022/11/01 05:08:27;;;;;;;14.52;5.30;;;;;;;15.91;85.07;100718.13;5054859;28;20052;-61
2022/11/01 05:10:55;;;;;;;17.45;5.20;;;;;;;15.93;84.90;100729.50;5054471;28;20433;-61
2022/11/01 05:13:22;;;;;;;12.20;4.85;;;;;;;15.89;84.91;100720.19;5054612;28;20049;-62
2022/11/01 05:15:48;;;;;;;17.02;4.97;;;;;;;15.91;84.33;100736.88;5053653;28;20045;-61
2022/11/01 05:18:25;;;;;;;16.70;5.07;;;;;;;15.99;83.65;100745.78;5054689;28;20091;-61
2022/11/01 05:20:51;;;;;;;16.67;4.85;;;;;;;16.08;83.34;100747.31;5054285;28;20110;-61
2022/11/01 05:23:18;;;;;;;20.45;4.90;;;;;;;16.04;83.46;100743.38;5052765;28;20045;-61
2022/11/01 05:25:44;;;;;;;17.48;5.30;;;;;;;16.04;83.21;100748.72;5054138;28;20087;-61
2022/11/01 05:28:13;;;;;;;21.02;6.05;;;;;;;16.09;82.79;100751.66;5054669;28;20041;-61
2022/11/01 05:30:41;;;;;;;13.73;4.40;;;;;;;16.07;81.74;100767.09;5052956;28;20167;-62
2022/11/01 05:33:10;;;;;;;17.23;4.57;;;;;;;16.19;80.34;100767.41;5053219;28;20049;-62
2022/11/01 05:35:37;;;;;;;15.70;5.10;;;;;;;16.18;79.78;100771.13;5054199;28;20057;-61
2022/11/01 05:38:05;;;;;;;15.38;4.40;;;;;;;16.15;78.60;100780.34;5053275;28;20045;-61
2022/11/01 05:40:32;;;;;;;15.00;4.88;;;;;;;16.08;78.21;100769.59;5013754;28;20405;-61
2022/11/01 05:42:59;;;;;;;21.58;4.40;;;;;;;16.13;78.36;100771.66;5053826;28;20441;-61
2022/11/01 05:45:26;;;;;;;13.93;3.90;;;;;;;16.19;75.20;100783.47;5054134;28;20119;-62
2022/11/01 05:47:52;;;;;;;12.73;3.45;;;;;;;16.41;72.71;100789.66;5053957;28;20049;-61
2022/11/01 05:50:19;;;;;;;11.00;3.40;;;;;;;16.34;72.68;100780.75;5054376;28;20399;-62
2022/11/01 05:52:46;;;;;;;11.60;3.70;;;;;;;16.38;72.83;100774.81;5053465;28;20111;-61
2022/11/01 05:55:12;;;;;;;14.73;3.78;;;;;;;16.33;72.77;100784.44;5053634;28;20392;-62
2022/11/01 05:57:39;;;;;;;14.43;3.40;;;;;;;16.40;72.15;100786.16;5053378;28;20045;-62
2022/11/01 06:00:07;;;;;;;15.70;3.75;;;;;;;16.31;72.58;100798.81;5053736;28;20375;-62
2022/11/01 06:02:41;;;;;;;13.45;3.25;;;;;;;16.28;72.55;100803.72;5053946;28;20067;-61
2022/11/01 06:05:08;;;;;;;9.95;3.13;;;;;;;16.20;73.35;100812.72;5053211;28;20059;-62
2022/11/01 06:07:35;;;;;;;13.32;3.50;;;;;;;16.10;74.10;100815.72;5052625;28;20053;-62
2022/11/01 06:10:04;;;;;;;14.20;3.40;;;;;;;16.17;73.14;100834.53;5053218;28;20037;-61
2022/11/01 06:12:30;;;;;;;13.10;3.50;;;;;;;16.25;72.90;100846.97;5053506;28;20060;-61
2022/11/01 06:14:57;;;;;;;10.68;2.90;;;;;;;16.19;70.78;100861.94;5053537;28;20045;-61
2022/11/01 06:17:24;;;;;;;16.95;2.95;;;;;;;15.95;68.46;100881.78;5053276;28;20513;-61
2022/11/01 06:19:51;;;;;;;13.05;2.40;;;;;;;15.75;68.57;100892.22;5052201;28;20423;-62
2022/11/01 06:22:17;;;;;;;8.00;2.30;;;;;;;15.70;68.81;100881.22;5052332;28;20049;-62
2022/11/01 06:24:44;;;;;;;13.20;2.70;;;;;;;15.57;68.64;100897.88;5053360;28;20055;-62
2022/11/01 06:27:11;;;;;;;12.05;2.40;;;;;;;15.36;68.08;100896.75;5051844;28;20049;-62
2022/11/01 06:29:38;;;;;;;9.25;2.40;;;;;;;15.29;68.22;100903.00;5072160;28;20044;-62
2022/11/01 06:32:05;;;;;;;7.57;2.10;;;;;;;15.32;66.85;100900.00;5072996;28;20044;-62
2022/11/01 06:34:32;;;;;;;6.82;1.90;;;;;;;15.23;66.05;100901.91;5072153;28;20055;-62
2022/11/01 06:36:59;;;;;;;7.13;1.80;;;;;;;15.15;65.71;100908.16;5073181;28;20441;-62
2022/11/01 06:39:25;;;;;;;8.25;1.63;;;;;;;15.02;65.71;100920.44;5035028;28;20126;-62
2022/11/01 06:41:53;;;;;;;10.38;1.98;;;;;;;14.98;65.67;100931.47;5073146;28;20045;-62
2022/11/01 06:44:20;;;;;;;8.98;1.70;;;;;;;15.01;64.74;100930.31;5071916;28;20052;-62
2022/11/01 06:46:47;;;;;;;11.70;1.98;;;;;;;14.84;65.27;100937.59;5073218;28;20052;-62
2022/11/01 06:49:14;;;;;;;9.20;2.00;;;;;;;14.85;65.38;100944.59;5072823;28;20040;-62
2022/11/01 06:51:41;;;;;;;7.85;1.70;;;;;;;14.70;65.62;100960.56;5066017;28;20526;-61
2022/11/01 06:54:08;;;;;;;8.88;1.95;;;;;;;14.63;65.34;100950.75;5052905;28;20044;-62
2022/11/01 06:56:35;;;;;;;7.57;1.85;;;;;;;14.63;64.79;100964.94;5052556;28;20530;-62
2022/11/01 06:59:02;;;;;;;10.90;2.08;;;;;;;14.56;65.02;100980.78;5052804;28;20103;-61
2022/11/01 07:01:29;;;;;;;10.15;1.85;;;;;;;14.42;65.12;100983.34;5052487;28;20041;-62
2022/11/01 07:03:56;;;;;;;6.57;1.70;;;;;;;14.43;65.46;100993.84;5051909;28;20076;-62
2022/11/01 07:06:27;;;;;;;4.93;1.70;;;;;;;14.23;66.14;101006.75;5052203;28;20502;-62
2022/11/01 07:08:54;;;;;;;6.82;1.60;;;;;;;14.20;66.77;101004.44;5045014;28;20045;-62
2022/11/01 07:11:21;;;;;;;8.68;1.73;;;;;;;14.15;66.99;101009.44;5047827;28;20506;-62
2022/11/01 07:13:49;;;;;;;10.25;2.58;;;;;;;14.23;66.38;101016.63;5032603;28;20041;-63
2022/11/01 07:16:16;;;;;;;8.25;1.48;;;;;;;14.13;67.26;101014.13;5033068;28;20092;-63
2022/11/01 07:18:43;;;;;;;8.57;1.70;;;;;;;14.05;67.65;101012.31;5032632;28;20056;-63
2022/11/01 07:21:10;;;;;;;8.50;1.83;;;;;;;13.98;68.37;101022.81;5035146;28;20045;-63
2022/11/01 07:23:37;;;;;;;11.32;2.03;;;;;;;13.91;68.34;101029.84;5052733;28;20055;-62
2022/11/01 07:26:04;;;;;;;11.85;2.00;;;;;;;13.95;68.91;101047.19;5052656;28;20071;-63
2022/11/01 07:28:30;;;;;;;8.45;1.60;;;;;;;13.94;68.45;101048.16;5052543;28;20415;-63
2022/11/01 07:30:57;;;;;;;8.25;1.58;;;;;;;13.94;68.56;101050.84;5052584;28;20049;-63
2022/11/01 07:33:24;;;;;;;7.38;1.60;;;;;;;13.94;68.67;101058.84;5052345;28;20044;-63
2022/11/01 07:35:51;;;;;;;9.90;2.08;;;;;;;13.83;69.53;101056.53;5052454;28;20041;-63
2022/11/01 07:38:18;;;;;;;8.57;1.80;;;;;;;13.76;69.59;101067.00;5052416;28;20045;-62
2022/11/01 07:40:48;;;;;;;7.80;1.77;;;;;;;13.90;69.24;101072.66;5013288;28;20135;-63
2022/11/01 07:43:16;;;;;;;13.38;1.88;;;;;;;13.91;69.32;101079.69;5052633;28;20131;-62
2022/11/01 07:45:43;;;;;;;8.90;2.00;;;;;;;13.89;68.92;101077.16;5054582;28;20054;-63
2022/11/01 07:48:13;;;;;;;10.93;1.90;;;;;;;13.94;68.97;101066.84;5054646;28;20041;-63
2022/11/01 07:50:41;;;;;;;7.40;1.85;;;;;;;13.95;68.99;101079.19;5056586;28;20379;-62
2022/11/01 07:53:13;;;;;;;7.32;1.70;;;;;;;14.10;68.27;101083.81;5055695;28;20041;-63
2022/11/01 07:55:40;;;;;;;9.50;1.63;;;;;;;14.16;67.66;101078.66;5055939;28;20065;-63
2022/11/01 07:58:08;;;;;;;10.82;1.85;;;;;;;14.27;68.15;101088.13;5055379;28;20061;-63
2022/11/01 08:00:35;;;;;;;12.55;2.33;;;;;;;14.46;66.06;101091.41;5055984;28;20041;-62
2022/11/01 08:03:04;;;;;;;16.13;1.75;;;;;;;14.72;65.28;101091.22;5055890;28;20045;-63
2022/11/01 08:05:32;;;;;;;9.00;1.50;;;;;;;14.45;64.89;101092.44;5055188;28;20498;-62
2022/11/01 08:07:59;;;;;;;10.70;1.65;;;;;;;14.47;63.63;101101.94;5056148;28;20091;-61
2022/11/01 08:10:27;;;;;;;8.57;1.63;;;;;;;15.00;61.29;101099.59;5055668;28;20179;-63
2022/11/01 08:13:16;;;;;;;9.77;1.73;;;;;;;15.36;59.39;101104.41;5055715;28;20049;-62
2022/11/01 08:15:44;;;;;;;15.82;2.15;;;;;;;15.46;58.02;101091.66;5055194;28;20491;-62
2022/11/01 08:18:11;;;;;;;15.23;2.00;;;;;;;15.02;57.38;101112.78;5055568;28;20084;-62
2022/11/01 08:20:38;;;;;;;14.88;1.95;;;;;;;14.49;56.80;101086.56;5055164;28;20043;-62
2022/11/01 08:23:04;;;;;;;17.75;2.30;;;;;;;14.15;57.94;101110.81;5055517;28;20044;-63
2022/11/01 08:25:32;;;;;;;16.70;1.65;;;;;;;13.97;57.49;101105.66;5055341;28;20056;-62
2022/11/01 08:28:01;;;;;;;22.02;2.55;;;;;;;13.97;59.40;101108.31;5052654;28;20045;-62
2022/11/01 08:30:28;;;;;;;15.00;2.40;;;;;;;13.98;60.25;101115.34;5036442;28;20045;-62
2022/11/01 08:32:57;;;;;;;16.83;2.20;;;;;;;13.99;59.01;101112.50;5033800;28;20072;-62
2022/11/01 08:35:24;;;;;;;19.02;2.55;;;;;;;14.05;57.87;101113.69;5035327;28;20045;-62
2022/11/01 08:37:52;;;;;;;17.25;2.30;;;;;;;14.02;59.22;101122.84;5033906;28;20038;-61
2022/11/01 08:40:20;;;;;;;20.05;2.35;;;;;;;14.16;57.36;101123.16;4997517;28;20052;-62
2022/11/01 08:42:47;;;;;;;13.52;2.97;;;;;;;14.11;56.85;101133.50;5035446;28;20099;-62
2022/11/01 08:45:14;;;;;;;10.90;1.98;;;;;;;14.04;58.25;101127.19;5033855;28;20046;-63
2022/11/01 08:47:41;;;;;;;19.33;2.50;;;;;;;14.09;57.73;101135.50;5035209;28;20041;-63
2022/11/01 08:50:10;;;;;;;18.77;2.20;;;;;;;14.17;56.94;101136.34;5033997;28;20069;-62
2022/11/01 08:52:38;;;;;;;17.23;2.42;;;;;;;14.20;57.85;101152.00;5048214;28;20041;-62
2022/11/01 08:55:06;;;;;;;22.92;2.60;;;;;;;14.17;58.38;101149.69;5054509;28;20059;-63
2022/11/01 08:57:32;;;;;;;17.27;2.22;;;;;;;14.28;57.19;101172.53;5054383;28;20405;-63
2022/11/01 09:00:00;;;;;;;15.27;2.08;;;;;;;14.33;57.05;101164.84;5054848;28;20053;-62
2022/11/01 09:02:27;;;;;;;17.23;2.35;;;;;;;14.25;57.63;101158.69;5054850;28;20051;-62
2022/11/01 09:04:54;;;;;;;14.45;2.30;;;;;;;14.39;56.61;101158.00;5054606;28;20090;-62
2022/11/01 09:07:21;;;;;;;14.70;2.30;;;;;;;14.32;56.62;101157.84;5053706;28;20406;-62
2022/11/01 09:09:47;;;;;;;16.60;2.47;;;;;;;14.34;56.34;101157.69;5054552;28;20040;-62
2022/11/01 09:12:14;;;;;;;21.15;2.30;;;;;;;14.36;57.61;101172.50;5054651;28;20548;-62
2022/11/01 09:14:41;;;;;;;8.70;1.95;;;;;;;14.33;56.93;101172.00;5053309;28;20041;-61
2022/11/01 09:17:08;;;;;;;14.63;1.88;;;;;;;14.44;57.33;101168.16;5054467;28;20044;-62
2022/11/01 09:19:34;;;;;;;16.45;3.47;;;;;;;14.43;56.59;101172.69;5054461;28;20052;-62
2022/11/01 09:22:01;;;;;;;15.63;2.25;;;;;;;14.40;56.87;101176.50;5054288;28;20123;-63
2022/11/01 09:24:28;;;;;;;17.42;2.65;;;;;;;14.50;57.66;101165.66;5020211;28;20045;-61
2022/11/01 09:26:55;;;;;;;13.27;2.20;;;;;;;14.64;57.09;101177.50;5053038;28;20049;-62
2022/11/01 09:29:22;;;;;;;15.48;1.85;;;;;;;14.55;56.55;101181.16;5054043;28;20052;-61
2022/11/01 09:31:51;;;;;;;16.73;2.40;;;;;;;14.57;57.69;101188.03;5054357;28;20047;-62
2022/11/01 09:34:19;;;;;;;15.38;2.30;;;;;;;14.74;57.40;101193.34;5054040;28;20483;-62
2022/11/01 09:36:46;;;;;;;12.43;2.00;;;;;;;14.86;56.42;101192.00;5054359;28;20114;-62
2022/11/01 09:39:16;;;;;;;17.42;2.20;;;;;;;14.75;56.88;101178.97;5045909;28;20064;-62
2022/11/01 09:41:48;;;;;;;13.55;1.90;;;;;;;14.82;56.58;101190.66;5027170;28;20045;-62
2022/11/01 09:44:22;;;;;;;12.30;2.20;;;;;;;14.85;56.61;101189.50;5054068;28;20059;-62
2022/11/01 09:46:52;;;;;;;17.80;3.13;;;;;;;14.96;56.92;101194.47;5054021;28;20045;-62
2022/11/01 09:49:25;;;;;;;18.52;1.85;;;;;;;15.02;56.65;101192.94;5052853;28;20052;-63
2022/11/01 09:51:52;;;;;;;16.67;2.08;;;;;;;15.00;57.16;101194.94;5053875;28;20068;-62
2022/11/01 09:54:22;;;;;;;13.98;1.70;;;;;;;15.11;55.97;101194.56;5052483;28;20414;-63
2022/11/01 09:57:13;;;;;;;13.02;2.35;;;;;;;15.07;55.77;101195.94;5053777;28;20049;-63
2022/11/01 10:00:02;;;;;;;14.03;1.97;;;;;;;15.03;55.51;101200.78;5053109;28;20055;-62
2022/11/01 10:06:20;;;;;;;11.10;1.98;;;;;;;15.04;56.13;101202.44;5069425;28;20380;-62
2022/11/01 10:09:04;;;;;;;14.30;2.30;;;;;;;15.21;55.81;101211.25;5068917;28;20091;-61
2022/11/01 10:12:00;;;;;;;16.63;1.92;;;;;;;15.36;56.03;101197.97;5070188;28;20580;-60
2022/11/01 10:17:14;;;;;;;24.45;8.13;;;;;;;15.50;55.72;101201.75;5109119;27;20400;-64
2022/11/01 10:19:46;;;;;;;18.20;3.47;;;;;;;15.50;54.78;101199.09;5109968;28;20150;-60
2022/11/01 10:22:17;;;;;;;17.05;2.92;;;;;;;15.50;53.84;101202.59;5098866;28;20044;-59
2022/11/01 10:24:55;;;;;;;15.38;1.90;;;;;;;15.45;53.75;101206.78;5090031;28;20068;-63
2022/11/01 10:27:52;;;;;;;14.98;2.60;;;;;;;15.48;54.12;101204.59;5100802;28;20039;-62
2022/11/01 10:30:19;;;;;;;17.27;2.20;;;;;;;15.50;54.43;101207.09;5087257;28;20075;-62
2022/11/01 10:33:25;;;;;;;16.02;2.25;;;;;;;15.61;54.94;101209.38;5069618;28;20032;-62
2022/11/01 10:36:01;;;;;;;19.15;3.20;;;;;;;15.81;54.58;101215.16;5067746;28;20044;-63
2022/11/01 10:38:47;;;;;;;16.23;2.30;;;;;;;15.96;52.70;101225.91;5067844;28;20044;-61
2022/11/01 10:41:41;;;;;;;15.75;2.13;;;;;;;16.28;52.66;101218.63;5064203;28;20049;-62
2022/11/01 10:44:15;;;;;;;21.52;2.65;;;;;;;16.80;50.59;101209.78;5069830;28;20055;-61
2022/11/01 10:46:45;;;;;;;16.88;2.67;;;;;;;19.18;45.80;101230.41;5069708;28;20041;-63
2022/11/01 10:49:20;;;;;;;16.25;2.30;;;;;;;21.08;40.55;101224.03;5051959;28;20041;-62
2022/11/01 10:51:55;;;;;;;18.67;2.33;;;;;;;22.22;37.65;101232.41;5077426;28;20072;-62
2022/11/01 10:54:27;;;;;;;12.90;2.30;;;;;;;22.50;36.73;101223.06;5089664;28;20059;-62
2022/11/01 10:57:00;;;;;;;11.13;2.17;;;;;;;24.06;33.92;101228.13;5089811;28;20045;-62
2022/11/01 10:59:34;;;;;;;17.27;2.63;;;;;;;23.98;33.96;101233.84;5089862;28;20036;-62
2022/11/01 11:02:07;;;;;;;18.85;2.40;;;;;;;22.93;34.81;101227.66;5089420;28;20135;-61
2022/11/01 11:04:34;;;;;;;13.27;2.35;;;;;;;22.85;34.49;101239.59;5088193;28;20121;-61
2022/11/01 11:07:01;;;;;;;13.82;2.90;;;;;;;22.43;35.91;101223.97;5071349;28;20106;-62
2022/11/01 11:09:33;;;;;;;16.17;2.40;;;;;;;21.73;36.97;101228.59;5089642;28;20059;-62
2022/11/01 11:12:06;;;;;;;20.15;2.75;;;;;;;22.16;36.06;101225.19;5089171;28;20036;-61
2022/11/01 11:14:35;;;;;;;14.20;2.55;;;;;;;22.14;36.16;101227.25;5089378;28;20046;-63
2022/11/01 11:17:03;;;;;;;15.13;2.40;;;;;;;21.83;36.95;101231.66;5089057;28;20053;-60
2022/11/01 11:22:07;;;;;;;12.65;2.42;;;;;;;23.32;34.30;101231.81;5111104;27;20384;-62
2022/11/01 11:24:38;;;;;;;14.80;2.65;;;;;;;24.23;32.98;101236.38;5092845;28;20043;-62
2022/11/01 11:27:26;;;;;;;16.63;2.92;;;;;;;24.39;32.46;101240.31;5110599;28;20047;-62
2022/11/01 11:29:56;;;;;;;20.92;2.70;;;;;;;23.55;32.87;101224.84;5110503;28;20497;-62
2022/11/01 11:32:27;;;;;;;23.05;2.75;;;;;;;23.46;33.03;101221.63;5110963;28;20101;-62
2022/11/01 11:34:57;;;;;;;24.00;2.75;;;;;;;24.05;32.39;101232.72;5109346;28;20044;-62
2022/11/01 11:37:32;;;;;;;14.73;2.73;;;;;;;24.29;32.41;101244.44;5110666;28;20046;-62
2022/11/01 11:40:21;;;;;;;18.88;3.67;;;;;;;24.59;31.22;101240.00;5071003;28;20059;-61
2022/11/01 11:42:49;;;;;;;12.02;2.40;;;;;;;23.84;32.81;101234.06;5109376;28;20052;-60
2022/11/01 11:45:22;;;;;;;19.45;2.88;;;;;;;23.01;34.07;101235.44;5126419;28;20582;-61
2022/11/01 11:47:49;;;;;;;12.13;2.70;;;;;;;22.45;34.80;101231.84;5110417;28;20067;-61
2022/11/01 11:52:58;;;;;;;15.13;2.60;;;;;;;21.05;37.96;101230.69;5110213;27;20182;-63
2022/11/01 11:58:47;;;;;;;11.52;2.42;;;;;;;19.65;41.19;101232.47;5110743;27;20362;-61
2022/11/01 12:01:20;;;;;;;19.13;2.40;;;;;;;19.46;41.75;101229.47;5109538;28;20493;-62